createdAt,value
2018-12-22T00:27:14.014Z,1001.63
2018-12-22T00:27:14.586Z,1001.66
2018-12-22T00:27:15.187Z,1001.61
2018-12-22T00:27:15.787Z,1001.61
2018-12-22T00:27:16.389Z,1001.62
2018-12-22T00:27:16.986Z,1001.61
2018-12-22T00:27:17.586Z,1001.60
2018-12-22T00:27:18.185Z,1001.62
2018-12-22T00:28:11.644Z,1001.63
2018-12-22T00:28:12.242Z,1001.65
2018-12-22T00:28:12.841Z,1001.59
2018-12-22T00:28:21.957Z,1001.64
2018-12-22T00:28:21.971Z,1001.62
2018-12-22T00:28:22.002Z,1001.62
2018-12-22T00:28:22.175Z,1001.61
2018-12-22T00:28:22.207Z,1001.63
2018-12-22T00:29:10.320Z,1001.60
2018-12-22T00:29:10.917Z,1001.61
2018-12-22T00:29:11.516Z,1001.61
2018-12-22T00:29:12.117Z,1001.60
2018-12-22T00:29:12.721Z,1001.63
2018-12-22T00:29:13.317Z,1001.63
2018-12-22T00:29:13.918Z,1001.65
2018-12-22T00:29:14.516Z,1001.60
2018-12-22T00:30:09.000Z,1001.62
2018-12-22T00:30:09.593Z,1001.62
2018-12-22T00:30:10.296Z,1001.62
2018-12-22T00:30:10.792Z,1001.61
2018-12-22T00:30:11.392Z,1001.61
2018-12-22T00:30:11.992Z,1001.59
2018-12-22T00:30:12.592Z,1001.60
2018-12-22T00:30:13.194Z,1001.58
2018-12-22T00:31:07.671Z,1001.54
2018-12-22T00:31:08.269Z,1001.56
2018-12-22T00:31:08.869Z,1001.54
2018-12-22T00:31:09.470Z,1001.52
2018-12-22T00:31:10.069Z,1001.54
2018-12-22T00:31:10.668Z,1001.54
2018-12-22T00:31:11.269Z,1001.54
2018-12-22T00:31:11.868Z,1001.55
2018-12-22T00:32:05.356Z,1001.64
2018-12-22T00:32:05.923Z,1001.61
2018-12-22T00:32:06.522Z,1001.61
2018-12-22T00:32:07.124Z,1001.63
2018-12-22T00:32:07.722Z,1001.63
2018-12-22T00:32:08.323Z,1001.65
2018-12-22T00:32:08.922Z,1001.61
2018-12-22T00:32:09.520Z,1001.67
2018-12-22T00:33:02.977Z,1001.63
2018-12-22T00:33:03.574Z,1001.62
2018-12-22T00:33:04.173Z,1001.61
2018-12-22T00:33:04.774Z,1001.60
2018-12-22T00:33:05.374Z,1001.63
2018-12-22T00:33:05.973Z,1001.63
2018-12-22T00:33:06.572Z,1001.66
2018-12-22T00:33:07.173Z,1001.62
2018-12-22T00:34:00.631Z,1001.69
2018-12-22T00:34:01.228Z,1001.68
2018-12-22T00:34:01.828Z,1001.65
2018-12-22T00:34:02.429Z,1001.68
2018-12-22T00:34:03.026Z,1001.68
2018-12-22T00:34:03.626Z,1001.65
2018-12-22T00:34:04.290Z,1001.65
2018-12-22T00:34:04.835Z,1001.66
2018-12-22T00:34:58.292Z,1001.71
2018-12-22T00:34:58.992Z,1001.73
2018-12-22T00:34:59.478Z,1001.69
2018-12-22T00:35:00.077Z,1001.70
2018-12-22T00:35:00.678Z,1001.71
2018-12-22T00:35:01.285Z,1001.69
2018-12-22T00:35:01.878Z,1001.68
2018-12-22T00:35:02.479Z,1001.68
2018-12-22T00:35:57.039Z,1001.66
2018-12-22T00:35:57.555Z,1001.65
2018-12-22T00:35:58.153Z,1001.68
2018-12-22T00:35:58.759Z,1001.63
2018-12-22T00:35:59.353Z,1001.71
2018-12-22T00:35:59.954Z,1001.68
2018-12-22T00:36:00.552Z,1001.69
2018-12-22T00:36:01.153Z,1001.71
2018-12-22T00:36:55.632Z,1001.71
2018-12-22T00:36:56.229Z,1001.71
2018-12-22T00:36:56.830Z,1001.70
2018-12-22T00:36:57.431Z,1001.70
2018-12-22T00:36:58.029Z,1001.72
2018-12-22T00:36:58.630Z,1001.71
2018-12-22T00:36:59.229Z,1001.75
2018-12-22T00:36:59.828Z,1001.72
2018-12-22T00:37:53.319Z,1001.77
2018-12-22T00:37:53.884Z,1001.75
2018-12-22T00:37:54.483Z,1001.76
2018-12-22T00:37:55.082Z,1001.77
2018-12-22T00:37:55.686Z,1001.76
2018-12-22T00:37:56.283Z,1001.77
2018-12-22T00:37:56.882Z,1001.75
2018-12-22T00:37:57.481Z,1001.75
2018-12-22T00:38:51.961Z,1001.75
2018-12-22T00:38:52.558Z,1001.75
2018-12-22T00:38:53.159Z,1001.77
2018-12-22T00:38:53.767Z,1001.78
2018-12-22T00:38:54.358Z,1001.77
2018-12-22T00:38:54.957Z,1001.77
2018-12-22T00:38:55.557Z,1001.75
2018-12-22T00:38:56.157Z,1001.76
2018-12-22T00:39:50.637Z,1001.79
2018-12-22T00:39:51.234Z,1001.82
2018-12-22T00:39:51.834Z,1001.79
2018-12-22T00:39:52.434Z,1001.79
2018-12-22T00:39:53.034Z,1001.80
2018-12-22T00:39:53.633Z,1001.78
2018-12-22T00:39:54.234Z,1001.81
2018-12-22T00:39:54.832Z,1001.80
2018-12-22T00:40:48.294Z,1001.86
2018-12-22T00:40:48.885Z,1001.84
2018-12-22T00:40:49.485Z,1001.85
2018-12-22T00:40:50.087Z,1001.87
2018-12-22T00:40:50.740Z,1001.86
2018-12-22T00:40:51.285Z,1001.84
2018-12-22T00:40:51.885Z,1001.81
2018-12-22T00:40:52.487Z,1001.83
2018-12-22T00:41:45.976Z,1001.83
2018-12-22T00:41:46.538Z,1001.83
2018-12-22T00:41:47.138Z,1001.80
2018-12-22T00:41:47.741Z,1001.83
2018-12-22T00:41:48.338Z,1001.79
2018-12-22T00:41:48.939Z,1001.79
2018-12-22T00:41:49.537Z,1001.80
2018-12-22T00:41:50.137Z,1001.83
2018-12-22T00:42:44.616Z,1001.83
2018-12-22T00:42:45.213Z,1001.78
2018-12-22T00:42:45.813Z,1001.86
2018-12-22T00:42:46.413Z,1001.86
2018-12-22T00:42:47.014Z,1001.82
2018-12-22T00:42:47.613Z,1001.82
2018-12-22T00:42:48.218Z,1001.85
2018-12-22T00:42:48.811Z,1001.87
2018-12-22T00:43:43.316Z,1001.88
2018-12-22T00:43:43.888Z,1001.83
2018-12-22T00:43:44.489Z,1001.84
2018-12-22T00:43:45.089Z,1001.87
2018-12-22T00:43:45.688Z,1001.87
2018-12-22T00:43:46.288Z,1001.85
2018-12-22T00:43:46.888Z,1001.83
2018-12-22T00:43:47.490Z,1001.88
2018-12-22T00:44:40.947Z,1001.90
2018-12-22T00:44:41.546Z,1001.89
2018-12-22T00:44:42.146Z,1001.89
2018-12-22T00:44:42.749Z,1001.89
2018-12-22T00:44:43.344Z,1001.91
2018-12-22T00:44:43.945Z,1001.93
2018-12-22T00:44:44.544Z,1001.94
2018-12-22T00:44:45.146Z,1001.92
2018-12-22T00:45:38.596Z,1001.91
2018-12-22T00:45:39.194Z,1001.90
2018-12-22T00:45:39.793Z,1001.91
2018-12-22T00:45:40.392Z,1001.92
2018-12-22T00:45:40.993Z,1001.90
2018-12-22T00:45:41.593Z,1001.88
2018-12-22T00:45:42.193Z,1001.90
2018-12-22T00:45:42.792Z,1001.90
2018-12-22T00:46:36.248Z,1001.95
2018-12-22T00:46:36.845Z,1001.97
2018-12-22T00:46:37.446Z,1001.96
2018-12-22T00:46:38.048Z,1001.96
2018-12-22T00:46:38.644Z,1001.97
2018-12-22T00:46:39.245Z,1001.97
2018-12-22T00:46:39.842Z,1001.94
2018-12-22T00:46:40.446Z,1001.98
2018-12-22T00:47:33.901Z,1001.97
2018-12-22T00:47:34.498Z,1001.97
2018-12-22T00:47:35.100Z,1001.99
2018-12-22T00:47:35.697Z,1001.97
2018-12-22T00:47:36.320Z,1001.96
2018-12-22T00:47:36.897Z,1001.99
2018-12-22T00:47:37.496Z,1001.97
2018-12-22T00:47:38.097Z,1002.00
2018-12-22T00:48:31.584Z,1001.96
2018-12-22T00:48:32.148Z,1001.97
2018-12-22T00:48:32.749Z,1001.94
2018-12-22T00:48:33.348Z,1001.95
2018-12-22T00:48:33.948Z,1001.95
2018-12-22T00:48:34.549Z,1001.96
2018-12-22T00:48:35.147Z,1001.96
2018-12-22T00:48:35.748Z,1001.98
2018-12-22T00:49:29.204Z,1002.04
2018-12-22T00:49:29.802Z,1002.06
2018-12-22T00:49:30.400Z,1002.04
2018-12-22T00:49:31.001Z,1002.05
2018-12-22T00:49:31.601Z,1002.06
2018-12-22T00:49:32.203Z,1002.07
2018-12-22T00:49:32.800Z,1002.04
2018-12-22T00:49:33.400Z,1002.08
2018-12-22T00:50:26.856Z,1002.04
2018-12-22T00:50:27.455Z,1002.06
2018-12-22T00:50:28.052Z,1002.06
2018-12-22T00:50:28.652Z,1002.05
2018-12-22T00:50:29.253Z,1002.09
2018-12-22T00:50:29.855Z,1002.07
2018-12-22T00:50:30.452Z,1002.10
2018-12-22T00:50:31.053Z,1002.08
2018-12-22T00:51:24.507Z,1002.02
2018-12-22T00:51:25.106Z,1002.04
2018-12-22T00:51:25.705Z,1002.03
2018-12-22T00:51:26.303Z,1002.04
2018-12-22T00:51:26.904Z,1002.02
2018-12-22T00:51:27.504Z,1002.06
2018-12-22T00:51:28.104Z,1002.00
2018-12-22T00:51:28.703Z,1002.04
2018-12-22T00:52:23.186Z,1002.04
2018-12-22T00:52:23.778Z,1002.03
2018-12-22T00:52:24.382Z,1002.01
2018-12-22T00:52:24.978Z,1002.02
2018-12-22T00:52:25.578Z,1002.00
2018-12-22T00:52:26.180Z,1002.03
2018-12-22T00:52:26.782Z,1002.01
2018-12-22T00:52:27.379Z,1002.04
2018-12-22T00:53:23.394Z,1002.13
2018-12-22T00:53:23.990Z,1002.12
2018-12-22T00:53:24.591Z,1002.12
2018-12-22T00:53:25.191Z,1002.13
2018-12-22T00:53:25.790Z,1002.09
2018-12-22T00:53:26.394Z,1002.09
2018-12-22T00:54:44.728Z,1002.14
2018-12-22T00:54:45.300Z,1002.13
2018-12-22T00:54:45.901Z,1002.14
2018-12-22T00:54:46.501Z,1002.12
2018-12-22T00:54:47.099Z,1002.12
2018-12-22T00:56:59.401Z,1002.14
2018-12-22T00:56:59.995Z,1002.11
2018-12-22T00:57:00.594Z,1002.10
2018-12-22T00:57:01.196Z,1002.10
2018-12-22T00:57:01.793Z,1002.13
2018-12-22T00:57:02.391Z,1002.11
2018-12-22T00:57:02.995Z,1002.11
2018-12-22T00:57:03.591Z,1002.16
2018-12-22T00:57:04.194Z,1002.14
2018-12-22T00:57:04.792Z,1002.16
2018-12-22T00:57:05.391Z,1002.17
2018-12-22T00:57:05.991Z,1002.17
2018-12-22T00:58:00.083Z,1002.13
2018-12-22T00:58:00.680Z,1002.16
2018-12-22T00:58:01.279Z,1002.13
2018-12-22T00:58:01.880Z,1002.15
2018-12-22T00:58:02.480Z,1002.18
2018-12-22T00:58:03.080Z,1002.14
2018-12-22T00:58:03.679Z,1002.18
2018-12-22T00:58:04.281Z,1002.18
2018-12-22T00:58:58.277Z,1002.14
2018-12-22T00:58:58.848Z,1002.13
2018-12-22T00:58:59.533Z,1002.16
2018-12-22T00:59:00.043Z,1002.15
2018-12-22T00:59:00.645Z,1002.13
2018-12-22T00:59:01.243Z,1002.15
2018-12-22T00:59:01.843Z,1002.15
2018-12-22T00:59:55.386Z,1002.22
2018-12-22T00:59:55.985Z,1002.21
2018-12-22T00:59:56.583Z,1002.18
2018-12-22T00:59:57.183Z,1002.20
2018-12-22T00:59:57.784Z,1002.22
2018-12-22T00:59:58.383Z,1002.19
2018-12-22T00:59:58.982Z,1002.23
2018-12-22T00:59:59.582Z,1002.19
2018-12-22T01:00:53.041Z,1002.22
2018-12-22T01:00:53.638Z,1002.22
2018-12-22T01:00:54.235Z,1002.21
2018-12-22T01:00:54.834Z,1002.19
2018-12-22T01:00:55.439Z,1002.22
2018-12-22T01:00:56.138Z,1002.18
2018-12-22T01:00:56.634Z,1002.21
2018-12-22T01:00:57.234Z,1002.16
2018-12-22T01:01:51.713Z,1002.20
2018-12-22T01:01:52.310Z,1002.20
2018-12-22T01:01:52.912Z,1002.22
2018-12-22T01:01:53.514Z,1002.23
2018-12-22T01:01:54.113Z,1002.23
2018-12-22T01:01:54.710Z,1002.21
2018-12-22T01:01:55.311Z,1002.20
2018-12-22T01:01:55.910Z,1002.21
2018-12-22T01:02:50.390Z,1002.18
2018-12-22T01:02:50.988Z,1002.16
2018-12-22T01:02:51.585Z,1002.19
2018-12-22T01:02:52.186Z,1002.20
2018-12-22T01:02:52.789Z,1002.21
2018-12-22T01:02:53.386Z,1002.19
2018-12-22T01:02:53.984Z,1002.20
2018-12-22T01:02:54.586Z,1002.19
2018-12-22T01:03:48.552Z,1002.23
2018-12-22T01:03:49.153Z,1002.19
2018-12-22T01:03:49.749Z,1002.20
2018-12-22T01:03:50.349Z,1002.22
2018-12-22T01:03:50.987Z,1002.22
2018-12-22T01:03:51.550Z,1002.24
2018-12-22T01:03:52.149Z,1002.19
2018-12-22T01:04:45.720Z,1002.23
2018-12-22T01:04:46.291Z,1002.21
2018-12-22T01:04:46.891Z,1002.26
2018-12-22T01:04:47.491Z,1002.21
2018-12-22T01:04:48.090Z,1002.25
2018-12-22T01:04:48.694Z,1002.26
2018-12-22T01:04:49.291Z,1002.23
2018-12-22T01:04:49.890Z,1002.22
2018-12-22T01:05:43.345Z,1002.29
2018-12-22T01:05:43.943Z,1002.30
2018-12-22T01:05:44.542Z,1002.29
2018-12-22T01:05:45.142Z,1002.31
2018-12-22T01:05:45.784Z,1002.33
2018-12-22T01:05:46.342Z,1002.31
2018-12-22T01:05:46.942Z,1002.34
2018-12-22T01:05:47.540Z,1002.35
2018-12-22T01:06:40.996Z,1002.26
2018-12-22T01:06:41.593Z,1002.29
2018-12-22T01:06:42.193Z,1002.29
2018-12-22T01:06:42.794Z,1002.28
2018-12-22T01:06:43.396Z,1002.31
2018-12-22T01:06:43.994Z,1002.28
2018-12-22T01:06:44.594Z,1002.31
2018-12-22T01:06:45.195Z,1002.32
2018-12-22T01:07:38.651Z,1002.31
2018-12-22T01:07:39.245Z,1002.29
2018-12-22T01:07:39.844Z,1002.30
2018-12-22T01:07:40.445Z,1002.32
2018-12-22T01:07:41.050Z,1002.31
2018-12-22T01:07:41.646Z,1002.31
2018-12-22T01:07:42.244Z,1002.32
2018-12-22T01:07:42.844Z,1002.31
2018-12-22T01:08:37.323Z,1002.32
2018-12-22T01:08:37.922Z,1002.28
2018-12-22T01:08:38.521Z,1002.27
2018-12-22T01:08:39.120Z,1002.23
2018-12-22T01:08:39.720Z,1002.28
2018-12-22T01:08:40.322Z,1002.26
2018-12-22T01:08:40.919Z,1002.29
2018-12-22T01:08:41.520Z,1002.30
2018-12-22T01:09:35.009Z,1002.36
2018-12-22T01:09:35.575Z,1002.34
2018-12-22T01:09:36.172Z,1002.35
2018-12-22T01:09:36.772Z,1002.35
2018-12-22T01:09:37.373Z,1002.34
2018-12-22T01:09:37.974Z,1002.35
2018-12-22T01:09:38.571Z,1002.34
2018-12-22T01:09:39.172Z,1002.34
2018-12-22T01:10:33.650Z,1002.34
2018-12-22T01:10:34.257Z,1002.33
2018-12-22T01:10:34.848Z,1002.35
2018-12-22T01:10:35.448Z,1002.34
2018-12-22T01:10:36.046Z,1002.35
2018-12-22T01:10:36.650Z,1002.31
2018-12-22T01:10:37.247Z,1002.32
2018-12-22T01:10:37.847Z,1002.31
2018-12-22T01:11:32.330Z,1002.30
2018-12-22T01:11:32.923Z,1002.31
2018-12-22T01:11:33.523Z,1002.29
2018-12-22T01:11:34.124Z,1002.29
2018-12-22T01:11:34.722Z,1002.32
2018-12-22T01:11:35.324Z,1002.33
2018-12-22T01:11:35.925Z,1002.32
2018-12-22T01:11:36.523Z,1002.28
2018-12-22T01:12:31.002Z,1002.34
2018-12-22T01:12:31.601Z,1002.37
2018-12-22T01:12:32.200Z,1002.36
2018-12-22T01:12:32.800Z,1002.36
2018-12-22T01:12:33.398Z,1002.33
2018-12-22T01:12:33.999Z,1002.36
2018-12-22T01:12:34.598Z,1002.30
2018-12-22T01:12:35.198Z,1002.38
2018-12-22T01:13:28.654Z,1002.43
2018-12-22T01:13:29.253Z,1002.39
2018-12-22T01:13:29.853Z,1002.38
2018-12-22T01:13:30.454Z,1002.40
2018-12-22T01:13:31.051Z,1002.43
2018-12-22T01:13:31.652Z,1002.42
2018-12-22T01:13:32.251Z,1002.40
2018-12-22T01:13:32.851Z,1002.39
2018-12-22T01:14:26.310Z,1002.39
2018-12-22T01:14:26.907Z,1002.41
2018-12-22T01:14:27.506Z,1002.37
2018-12-22T01:14:28.107Z,1002.36
2018-12-22T01:14:28.707Z,1002.37
2018-12-22T01:14:29.305Z,1002.33
2018-12-22T01:14:29.904Z,1002.39
2018-12-22T01:14:30.513Z,1002.41
2018-12-22T01:15:25.007Z,1002.40
2018-12-22T01:15:25.581Z,1002.43
2018-12-22T01:15:26.180Z,1002.41
2018-12-22T01:15:26.785Z,1002.42
2018-12-22T01:15:27.379Z,1002.44
2018-12-22T01:15:27.977Z,1002.41
2018-12-22T01:15:28.578Z,1002.38
2018-12-22T01:15:29.178Z,1002.43
2018-12-22T01:16:23.658Z,1002.44
2018-12-22T01:16:24.264Z,1002.43
2018-12-22T01:16:24.853Z,1002.44
2018-12-22T01:16:25.453Z,1002.48
2018-12-22T01:16:26.053Z,1002.46
2018-12-22T01:16:26.655Z,1002.45
2018-12-22T01:16:27.254Z,1002.46
2018-12-22T01:16:27.852Z,1002.43
2018-12-22T01:17:21.310Z,1002.42
2018-12-22T01:17:21.907Z,1002.44
2018-12-22T01:17:22.514Z,1002.43
2018-12-22T01:17:23.107Z,1002.42
2018-12-22T01:17:23.707Z,1002.41
2018-12-22T01:17:24.307Z,1002.41
2018-12-22T01:17:24.908Z,1002.41
2018-12-22T01:17:25.505Z,1002.46
2018-12-22T01:18:18.962Z,1002.42
2018-12-22T01:18:19.562Z,1002.45
2018-12-22T01:18:20.159Z,1002.45
2018-12-22T01:18:20.760Z,1002.44
2018-12-22T01:18:21.359Z,1002.44
2018-12-22T01:18:21.958Z,1002.40
2018-12-22T01:18:22.558Z,1002.42
2018-12-22T01:18:23.158Z,1002.43
2018-12-22T01:19:18.149Z,1002.41
2018-12-22T01:19:18.748Z,1002.44
2018-12-22T01:19:19.345Z,1002.45
2018-12-22T01:19:19.946Z,1002.46
2018-12-22T01:19:20.545Z,1002.46
2018-12-22T01:19:21.146Z,1002.40
2018-12-22T01:19:21.745Z,1002.44
2018-12-22T01:20:16.235Z,1002.41
2018-12-22T01:20:16.808Z,1002.42
2018-12-22T01:20:17.407Z,1002.46
2018-12-22T01:20:18.017Z,1002.43
2018-12-22T01:20:18.718Z,1002.42
2018-12-22T01:20:19.206Z,1002.43
2018-12-22T01:20:19.807Z,1002.45
2018-12-22T01:20:20.406Z,1002.42
2018-12-22T01:21:13.863Z,1002.47
2018-12-22T01:21:14.461Z,1002.50
2018-12-22T01:21:15.060Z,1002.49
2018-12-22T01:21:15.659Z,1002.45
2018-12-22T01:21:16.260Z,1002.46
2018-12-22T01:21:16.861Z,1002.45
2018-12-22T01:21:17.464Z,1002.50
2018-12-22T01:21:18.058Z,1002.48
2018-12-22T01:22:18.090Z,1002.43
2018-12-22T01:22:18.591Z,1002.43
2018-12-22T01:22:19.189Z,1002.46
2018-12-22T01:22:19.790Z,1002.44
2018-12-22T01:22:20.390Z,1002.43
2018-12-22T01:22:20.989Z,1002.44
2018-12-22T01:22:21.592Z,1002.43
2018-12-22T01:22:22.191Z,1002.47
2018-12-22T01:22:22.789Z,1002.45
2018-12-22T01:22:23.389Z,1002.43
2018-12-22T01:22:23.989Z,1002.41
2018-12-22T01:22:24.589Z,1002.43
2018-12-22T01:22:25.188Z,1002.42
2018-12-22T01:22:25.790Z,1002.47
2018-12-22T01:23:20.277Z,1002.54
2018-12-22T01:23:20.822Z,1002.53
2018-12-22T01:23:21.423Z,1002.52
2018-12-22T01:23:22.021Z,1002.52
2018-12-22T01:23:22.621Z,1002.56
2018-12-22T01:23:23.222Z,1002.53
2018-12-22T01:23:23.820Z,1002.51
2018-12-22T01:23:24.419Z,1002.52
2018-12-22T01:24:17.877Z,1002.48
2018-12-22T01:24:18.475Z,1002.53
2018-12-22T01:24:19.074Z,1002.52
2018-12-22T01:24:19.676Z,1002.49
2018-12-22T01:24:20.280Z,1002.47
2018-12-22T01:24:20.875Z,1002.53
2018-12-22T01:24:21.474Z,1002.52
2018-12-22T01:24:22.075Z,1002.50
2018-12-22T01:25:16.554Z,1002.52
2018-12-22T01:25:17.149Z,1002.49
2018-12-22T01:25:17.749Z,1002.53
2018-12-22T01:25:18.349Z,1002.52
2018-12-22T01:25:18.949Z,1002.51
2018-12-22T01:25:19.550Z,1002.49
2018-12-22T01:25:20.149Z,1002.49
2018-12-22T01:25:20.747Z,1002.53
2018-12-22T01:26:14.236Z,1002.51
2018-12-22T01:26:14.803Z,1002.51
2018-12-22T01:26:15.407Z,1002.52
2018-12-22T01:26:16.000Z,1002.51
2018-12-22T01:26:16.603Z,1002.54
2018-12-22T01:26:17.201Z,1002.48
2018-12-22T01:26:17.803Z,1002.51
2018-12-22T01:26:18.400Z,1002.52
2018-12-22T01:27:12.880Z,1002.52
2018-12-22T01:27:13.478Z,1002.54
2018-12-22T01:27:14.076Z,1002.53
2018-12-22T01:27:14.677Z,1002.52
2018-12-22T01:27:15.376Z,1002.52
2018-12-22T01:27:15.874Z,1002.51
2018-12-22T01:27:16.477Z,1002.51
2018-12-22T01:27:17.077Z,1002.51
2018-12-22T01:28:11.554Z,1002.58
2018-12-22T01:28:12.154Z,1002.53
2018-12-22T01:28:12.751Z,1002.53
2018-12-22T01:28:13.351Z,1002.53
2018-12-22T01:28:13.951Z,1002.54
2018-12-22T01:28:14.556Z,1002.56
2018-12-22T01:28:15.151Z,1002.59
2018-12-22T01:28:15.750Z,1002.57
2018-12-22T01:29:09.208Z,1002.59
2018-12-22T01:29:09.805Z,1002.57
2018-12-22T01:29:10.404Z,1002.56
2018-12-22T01:29:11.004Z,1002.59
2018-12-22T01:29:11.607Z,1002.51
2018-12-22T01:29:12.207Z,1002.56
2018-12-22T01:29:12.804Z,1002.55
2018-12-22T01:29:13.405Z,1002.57
2018-12-22T01:30:06.859Z,1002.60
2018-12-22T01:30:07.458Z,1002.56
2018-12-22T01:30:08.056Z,1002.58
2018-12-22T01:30:08.658Z,1002.58
2018-12-22T01:30:09.258Z,1002.59
2018-12-22T01:30:09.856Z,1002.58
2018-12-22T01:30:10.456Z,1002.61
2018-12-22T01:30:11.056Z,1002.60
2018-12-22T01:31:05.532Z,1002.60
2018-12-22T01:31:06.132Z,1002.58
2018-12-22T01:31:06.731Z,1002.58
2018-12-22T01:31:07.332Z,1002.61
2018-12-22T01:31:07.930Z,1002.59
2018-12-22T01:31:08.531Z,1002.60
2018-12-22T01:31:09.131Z,1002.66
2018-12-22T01:31:09.731Z,1002.59
2018-12-22T01:32:03.213Z,1002.59
2018-12-22T01:32:03.784Z,1002.57
2018-12-22T01:32:04.383Z,1002.53
2018-12-22T01:32:04.983Z,1002.55
2018-12-22T01:32:05.584Z,1002.55
2018-12-22T01:32:06.183Z,1002.53
2018-12-22T01:32:06.791Z,1002.54
2018-12-22T01:32:07.494Z,1002.52
2018-12-22T01:33:01.862Z,1002.62
2018-12-22T01:33:02.458Z,1002.64
2018-12-22T01:33:03.058Z,1002.65
2018-12-22T01:33:03.658Z,1002.62
2018-12-22T01:33:04.260Z,1002.62
2018-12-22T01:33:04.859Z,1002.62
2018-12-22T01:33:05.458Z,1002.59
2018-12-22T01:33:06.057Z,1002.56
2018-12-22T01:34:00.538Z,1002.56
2018-12-22T01:34:01.134Z,1002.58
2018-12-22T01:34:01.734Z,1002.58
2018-12-22T01:34:02.334Z,1002.61
2018-12-22T01:34:02.937Z,1002.60
2018-12-22T01:34:03.535Z,1002.59
2018-12-22T01:34:04.133Z,1002.59
2018-12-22T01:34:04.733Z,1002.59
2018-12-22T01:34:58.197Z,1002.66
2018-12-22T01:34:58.789Z,1002.64
2018-12-22T01:34:59.387Z,1002.67
2018-12-22T01:34:59.987Z,1002.65
2018-12-22T01:35:00.587Z,1002.65
2018-12-22T01:35:01.187Z,1002.65
2018-12-22T01:35:01.786Z,1002.61
2018-12-22T01:35:02.387Z,1002.65
2018-12-22T01:35:56.873Z,1002.62
2018-12-22T01:35:57.461Z,1002.59
2018-12-22T01:35:58.061Z,1002.60
2018-12-22T01:35:58.661Z,1002.58
2018-12-22T01:35:59.262Z,1002.58
2018-12-22T01:35:59.862Z,1002.59
2018-12-22T01:36:00.462Z,1002.62
2018-12-22T01:36:01.061Z,1002.62
2018-12-22T01:36:54.546Z,1002.65
2018-12-22T01:36:55.116Z,1002.63
2018-12-22T01:36:55.715Z,1002.61
2018-12-22T01:36:56.314Z,1002.62
2018-12-22T01:36:56.916Z,1002.63
2018-12-22T01:36:57.514Z,1002.62
2018-12-22T01:36:58.112Z,1002.62
2018-12-22T01:36:58.712Z,1002.63
2018-12-22T01:37:52.169Z,1002.65
2018-12-22T01:37:52.766Z,1002.66
2018-12-22T01:37:53.366Z,1002.66
2018-12-22T01:37:53.967Z,1002.70
2018-12-22T01:37:54.566Z,1002.68
2018-12-22T01:37:55.166Z,1002.69
2018-12-22T01:37:55.766Z,1002.72
2018-12-22T01:37:56.366Z,1002.68
2018-12-22T01:38:49.819Z,1002.66
2018-12-22T01:38:50.417Z,1002.68
2018-12-22T01:38:51.018Z,1002.69
2018-12-22T01:38:51.617Z,1002.66
2018-12-22T01:38:52.217Z,1002.69
2018-12-22T01:38:52.818Z,1002.72
2018-12-22T01:38:53.420Z,1002.72
2018-12-22T01:38:54.016Z,1002.75
2018-12-22T01:39:47.471Z,1002.64
2018-12-22T01:39:48.070Z,1002.66
2018-12-22T01:39:48.669Z,1002.65
2018-12-22T01:39:49.268Z,1002.67
2018-12-22T01:39:49.870Z,1002.66
2018-12-22T01:39:50.470Z,1002.70
2018-12-22T01:39:51.069Z,1002.70
2018-12-22T01:39:51.668Z,1002.72
2018-12-22T01:40:45.124Z,1002.72
2018-12-22T01:40:45.722Z,1002.71
2018-12-22T01:40:46.323Z,1002.76
2018-12-22T01:40:46.920Z,1002.72
2018-12-22T01:40:47.521Z,1002.76
2018-12-22T01:40:48.121Z,1002.70
2018-12-22T01:40:48.719Z,1002.75
2018-12-22T01:40:49.320Z,1002.71
2018-12-22T01:41:44.333Z,1002.75
2018-12-22T01:41:44.907Z,1002.74
2018-12-22T01:41:45.509Z,1002.74
2018-12-22T01:41:46.111Z,1002.77
2018-12-22T01:41:46.711Z,1002.74
2018-12-22T01:41:47.309Z,1002.73
2018-12-22T01:41:47.907Z,1002.76
2018-12-22T01:42:41.453Z,1002.68
2018-12-22T01:42:42.055Z,1002.70
2018-12-22T01:42:42.649Z,1002.68
2018-12-22T01:42:43.250Z,1002.70
2018-12-22T01:42:43.849Z,1002.72
2018-12-22T01:42:44.453Z,1002.70
2018-12-22T01:42:45.049Z,1002.70
2018-12-22T01:42:45.649Z,1002.71
2018-12-22T01:43:39.104Z,1002.68
2018-12-22T01:43:39.701Z,1002.64
2018-12-22T01:43:40.300Z,1002.66
2018-12-22T01:43:40.900Z,1002.63
2018-12-22T01:43:41.500Z,1002.68
2018-12-22T01:43:42.100Z,1002.68
2018-12-22T01:43:42.700Z,1002.65
2018-12-22T01:43:43.299Z,1002.65
2018-12-22T01:44:36.756Z,1002.74
2018-12-22T01:44:37.351Z,1002.69
2018-12-22T01:44:37.960Z,1002.74
2018-12-22T01:44:38.551Z,1002.71
2018-12-22T01:44:39.151Z,1002.67
2018-12-22T01:44:39.752Z,1002.70
2018-12-22T01:44:40.350Z,1002.72
2018-12-22T01:44:40.951Z,1002.70
2018-12-22T01:45:40.449Z,1002.66
2018-12-22T01:45:41.044Z,1002.67
2018-12-22T01:45:41.643Z,1002.69
2018-12-22T01:45:42.247Z,1002.66
2018-12-22T01:45:42.843Z,1002.68
2018-12-22T01:45:43.446Z,1002.64
2018-12-22T01:45:44.043Z,1002.67
2018-12-22T01:45:44.641Z,1002.66
2018-12-22T01:45:45.242Z,1002.65
2018-12-22T01:45:45.841Z,1002.66
2018-12-22T01:45:46.444Z,1002.63
2018-12-22T01:45:47.041Z,1002.65
2018-12-22T01:45:47.642Z,1002.67
2018-12-22T01:45:48.241Z,1002.63
2018-12-22T01:45:48.841Z,1002.62
2018-12-22T01:45:49.444Z,1002.65
2018-12-22T01:47:04.442Z,1002.66
2018-12-22T01:47:05.020Z,1002.66
2018-12-22T01:47:05.611Z,1002.69
2018-12-22T01:47:06.210Z,1002.68
2018-12-22T01:47:06.811Z,1002.70
2018-12-22T01:47:07.411Z,1002.69
2018-12-22T01:48:02.375Z,1002.63
2018-12-22T01:48:02.972Z,1002.63
2018-12-22T01:48:03.571Z,1002.63
2018-12-22T01:48:04.171Z,1002.65
2018-12-22T01:48:04.772Z,1002.64
2018-12-22T01:48:05.370Z,1002.61
2018-12-22T01:48:05.970Z,1002.63
2018-12-22T01:48:06.570Z,1002.62
2018-12-22T01:49:12.723Z,1002.68
2018-12-22T01:49:13.321Z,1002.70
2018-12-22T01:49:13.925Z,1002.68
2018-12-22T01:49:14.522Z,1002.72
2018-12-22T01:49:15.120Z,1002.72
2018-12-22T01:49:15.721Z,1002.69
2018-12-22T01:49:16.321Z,1002.70
2018-12-22T01:49:16.920Z,1002.70
2018-12-22T01:50:11.401Z,1002.70
2018-12-22T01:50:11.997Z,1002.70
2018-12-22T01:50:12.600Z,1002.65
2018-12-22T01:50:13.202Z,1002.68
2018-12-22T01:50:13.798Z,1002.70
2018-12-22T01:50:14.397Z,1002.68
2018-12-22T01:50:14.995Z,1002.66
2018-12-22T01:50:15.596Z,1002.68
2018-12-22T01:51:10.101Z,1002.67
2018-12-22T01:51:10.672Z,1002.66
2018-12-22T01:51:11.273Z,1002.63
2018-12-22T01:51:11.872Z,1002.67
2018-12-22T01:51:12.472Z,1002.68
2018-12-22T01:51:13.071Z,1002.66
2018-12-22T01:51:13.679Z,1002.64
2018-12-22T01:51:14.274Z,1002.67
2018-12-22T01:52:07.728Z,1002.73
2018-12-22T01:52:08.339Z,1002.70
2018-12-22T01:52:08.929Z,1002.67
2018-12-22T01:52:09.530Z,1002.69
2018-12-22T01:52:10.125Z,1002.69
2018-12-22T01:52:10.725Z,1002.68
2018-12-22T01:52:11.324Z,1002.66
2018-12-22T01:52:11.926Z,1002.66
2018-12-22T01:53:05.383Z,1002.65
2018-12-22T01:53:05.978Z,1002.63
2018-12-22T01:53:06.578Z,1002.63
2018-12-22T01:53:07.177Z,1002.67
2018-12-22T01:53:07.777Z,1002.63
2018-12-22T01:53:08.377Z,1002.64
2018-12-22T01:53:09.030Z,1002.66
2018-12-22T01:53:09.578Z,1002.63
2018-12-22T01:54:03.037Z,1002.65
2018-12-22T01:54:03.626Z,1002.62
2018-12-22T01:54:04.228Z,1002.65
2018-12-22T01:54:04.827Z,1002.63
2018-12-22T01:54:05.426Z,1002.65
2018-12-22T01:54:06.026Z,1002.65
2018-12-22T01:54:06.626Z,1002.61
2018-12-22T01:54:07.227Z,1002.62
2018-12-22T01:55:00.684Z,1002.66
2018-12-22T01:55:01.287Z,1002.65
2018-12-22T01:55:01.883Z,1002.67
2018-12-22T01:55:02.480Z,1002.68
2018-12-22T01:55:03.082Z,1002.67
2018-12-22T01:55:03.680Z,1002.68
2018-12-22T01:55:04.280Z,1002.70
2018-12-22T01:55:04.881Z,1002.67
2018-12-22T01:55:58.360Z,1002.67
2018-12-22T01:55:58.933Z,1002.70
2018-12-22T01:55:59.532Z,1002.69
2018-12-22T01:56:00.133Z,1002.62
2018-12-22T01:56:00.732Z,1002.66
2018-12-22T01:56:01.332Z,1002.72
2018-12-22T01:56:01.931Z,1002.66